sensor_id;sensor_type;location;lat;lon;timestamp;temperature;humidity
50955;DHT22;36966;48.064;-0.792;2024-02-23T00:01:50;16.50;54.20
50955;DHT22;36966;48.064;-0.792;2024-02-23T00:04:09;16.50;53.90
50955;DHT22;36966;48.064;-0.792;2024-02-23T00:06:28;16.50;54.10
50955;DHT22;36966;48.064;-0.792;2024-02-23T00:08:48;16.60;54.10
50955;DHT22;36966;48.064;-0.792;2024-02-23T00:11:07;16.50;53.80
50955;DHT22;36966;48.064;-0.792;2024-02-23T00:13:26;16.50;54.00
50955;DHT22;36966;48.064;-0.792;2024-02-23T00:15:45;16.50;53.90
50955;DHT22;36966;48.064;-0.792;2024-02-23T00:18:05;16.50;54.00
50955;DHT22;36966;48.064;-0.792;2024-02-23T00:20:25;16.50;53.90
50955;DHT22;36966;48.064;-0.792;2024-02-23T00:22:44;16.50;54.00
50955;DHT22;36966;48.064;-0.792;2024-02-23T00:25:04;16.50;53.80
50955;DHT22;36966;48.064;-0.792;2024-02-23T00:27:23;16.50;53.90
50955;DHT22;36966;48.064;-0.792;2024-02-23T00:29:43;16.50;53.90
50955;DHT22;36966;48.064;-0.792;2024-02-23T00:32:03;16.50;53.80
50955;DHT22;36966;48.064;-0.792;2024-02-23T00:34:22;16.50;53.90
50955;DHT22;36966;48.064;-0.792;2024-02-23T00:36:41;16.50;53.70
50955;DHT22;36966;48.064;-0.792;2024-02-23T00:39:01;16.50;53.80
50955;DHT22;36966;48.064;-0.792;2024-02-23T00:41:21;16.50;54.00
50955;DHT22;36966;48.064;-0.792;2024-02-23T00:43:40;16.50;54.00
50955;DHT22;36966;48.064;-0.792;2024-02-23T00:45:59;16.40;53.90
50955;DHT22;36966;48.064;-0.792;2024-02-23T00:48:19;16.50;53.80
50955;DHT22;36966;48.064;-0.792;2024-02-23T00:50:38;16.50;53.80
50955;DHT22;36966;48.064;-0.792;2024-02-23T00:52:57;16.50;53.70
50955;DHT22;36966;48.064;-0.792;2024-02-23T00:55:17;16.50;53.70
50955;DHT22;36966;48.064;-0.792;2024-02-23T00:57:36;16.40;53.70
50955;DHT22;36966;48.064;-0.792;2024-02-23T00:59:56;16.50;53.70
50955;DHT22;36966;48.064;-0.792;2024-02-23T01:02:15;16.50;53.80
50955;DHT22;36966;48.064;-0.792;2024-02-23T01:04:34;16.40;53.70
50955;DHT22;36966;48.064;-0.792;2024-02-23T01:06:53;16.50;53.80
50955;DHT22;36966;48.064;-0.792;2024-02-23T01:09:13;16.40;53.70
50955;DHT22;36966;48.064;-0.792;2024-02-23T01:11:32;16.50;53.80
50955;DHT22;36966;48.064;-0.792;2024-02-23T01:13:51;16.50;53.80
50955;DHT22;36966;48.064;-0.792;2024-02-23T01:16:10;16.40;53.70
50955;DHT22;36966;48.064;-0.792;2024-02-23T01:18:30;16.40;53.80
50955;DHT22;36966;48.064;-0.792;2024-02-23T01:20:49;16.40;53.80
50955;DHT22;36966;48.064;-0.792;2024-02-23T01:23:08;16.40;53.90
50955;DHT22;36966;48.064;-0.792;2024-02-23T01:25:28;16.40;53.80
50955;DHT22;36966;48.064;-0.792;2024-02-23T01:27:47;16.40;53.80
50955;DHT22;36966;48.064;-0.792;2024-02-23T01:30:07;16.40;53.70
50955;DHT22;36966;48.064;-0.792;2024-02-23T01:32:27;16.40;53.80
50955;DHT22;36966;48.064;-0.792;2024-02-23T01:34:47;16.40;53.60
50955;DHT22;36966;48.064;-0.792;2024-02-23T01:37:06;16.40;53.70
50955;DHT22;36966;48.064;-0.792;2024-02-23T01:39:26;16.40;53.60
50955;DHT22;36966;48.064;-0.792;2024-02-23T01:41:45;16.40;53.50
50955;DHT22;36966;48.064;-0.792;2024-02-23T01:44:04;16.40;53.60
50955;DHT22;36966;48.064;-0.792;2024-02-23T01:46:23;16.40;53.50
50955;DHT22;36966;48.064;-0.792;2024-02-23T01:48:42;16.40;53.40
50955;DHT22;36966;48.064;-0.792;2024-02-23T01:51:02;16.30;53.50
50955;DHT22;36966;48.064;-0.792;2024-02-23T01:53:21;16.30;53.60
50955;DHT22;36966;48.064;-0.792;2024-02-23T01:55:41;16.30;53.40
50955;DHT22;36966;48.064;-0.792;2024-02-23T01:58:01;16.30;53.40
50955;DHT22;36966;48.064;-0.792;2024-02-23T02:00:20;16.30;53.50
50955;DHT22;36966;48.064;-0.792;2024-02-23T02:02:39;16.30;53.50
50955;DHT22;36966;48.064;-0.792;2024-02-23T02:04:59;16.30;53.50
50955;DHT22;36966;48.064;-0.792;2024-02-23T02:07:18;16.30;53.60
50955;DHT22;36966;48.064;-0.792;2024-02-23T02:09:38;16.30;53.50
50955;DHT22;36966;48.064;-0.792;2024-02-23T02:11:58;16.30;53.50
50955;DHT22;36966;48.064;-0.792;2024-02-23T02:14:17;16.30;53.50
50955;DHT22;36966;48.064;-0.792;2024-02-23T02:16:36;16.30;53.40
50955;DHT22;36966;48.064;-0.792;2024-02-23T02:18:55;16.30;53.50
50955;DHT22;36966;48.064;-0.792;2024-02-23T02:21:14;16.30;53.40
50955;DHT22;36966;48.064;-0.792;2024-02-23T02:23:34;16.30;53.50
50955;DHT22;36966;48.064;-0.792;2024-02-23T02:25:56;16.30;53.50
50955;DHT22;36966;48.064;-0.792;2024-02-23T02:28:16;16.30;53.40
50955;DHT22;36966;48.064;-0.792;2024-02-23T02:30:36;16.30;53.50
50955;DHT22;36966;48.064;-0.792;2024-02-23T02:32:55;16.30;53.50
50955;DHT22;36966;48.064;-0.792;2024-02-23T02:35:14;16.30;53.40
50955;DHT22;36966;48.064;-0.792;2024-02-23T02:37:34;16.30;53.50
50955;DHT22;36966;48.064;-0.792;2024-02-23T02:39:54;16.30;53.50
50955;DHT22;36966;48.064;-0.792;2024-02-23T02:42:13;16.30;53.30
50955;DHT22;36966;48.064;-0.792;2024-02-23T02:44:32;16.20;53.40
50955;DHT22;36966;48.064;-0.792;2024-02-23T02:46:52;16.30;53.50
50955;DHT22;36966;48.064;-0.792;2024-02-23T02:49:11;16.30;53.20
50955;DHT22;36966;48.064;-0.792;2024-02-23T02:51:30;16.30;53.30
50955;DHT22;36966;48.064;-0.792;2024-02-23T02:53:49;16.30;53.40
50955;DHT22;36966;48.064;-0.792;2024-02-23T02:56:08;16.20;53.30
50955;DHT22;36966;48.064;-0.792;2024-02-23T02:58:28;16.30;53.40
50955;DHT22;36966;48.064;-0.792;2024-02-23T03:00:47;16.30;53.50
50955;DHT22;36966;48.064;-0.792;2024-02-23T03:03:06;16.20;53.40
50955;DHT22;36966;48.064;-0.792;2024-02-23T03:05:26;16.20;53.20
50955;DHT22;36966;48.064;-0.792;2024-02-23T03:07:45;16.20;53.40
50955;DHT22;36966;48.064;-0.792;2024-02-23T03:10:05;16.20;53.40
50955;DHT22;36966;48.064;-0.792;2024-02-23T03:12:25;16.20;53.30
50955;DHT22;36966;48.064;-0.792;2024-02-23T03:14:44;16.20;53.30
50955;DHT22;36966;48.064;-0.792;2024-02-23T03:17:03;16.20;53.30
50955;DHT22;36966;48.064;-0.792;2024-02-23T03:19:22;16.20;53.40
50955;DHT22;36966;48.064;-0.792;2024-02-23T03:21:42;16.20;53.30
50955;DHT22;36966;48.064;-0.792;2024-02-23T03:24:01;16.20;53.10
50955;DHT22;36966;48.064;-0.792;2024-02-23T03:26:20;16.20;53.10
50955;DHT22;36966;48.064;-0.792;2024-02-23T03:28:40;16.20;53.10
50955;DHT22;36966;48.064;-0.792;2024-02-23T03:30:59;16.20;53.20
50955;DHT22;36966;48.064;-0.792;2024-02-23T03:33:19;16.20;53.20
50955;DHT22;36966;48.064;-0.792;2024-02-23T03:35:38;16.20;53.20
50955;DHT22;36966;48.064;-0.792;2024-02-23T03:37:58;16.20;53.10
50955;DHT22;36966;48.064;-0.792;2024-02-23T03:40:17;16.20;52.80
50955;DHT22;36966;48.064;-0.792;2024-02-23T03:42:38;16.20;53.00
50955;DHT22;36966;48.064;-0.792;2024-02-23T03:44:57;16.20;53.10
50955;DHT22;36966;48.064;-0.792;2024-02-23T03:47:16;16.20;53.10
50955;DHT22;36966;48.064;-0.792;2024-02-23T03:49:35;16.20;53.10
50955;DHT22;36966;48.064;-0.792;2024-02-23T03:51:55;16.20;53.10
50955;DHT22;36966;48.064;-0.792;2024-02-23T03:54:14;16.20;53.00
50955;DHT22;36966;48.064;-0.792;2024-02-23T03:56:40;16.20;52.90
50955;DHT22;36966;48.064;-0.792;2024-02-23T03:58:59;16.20;53.10
50955;DHT22;36966;48.064;-0.792;2024-02-23T04:01:19;16.20;53.00
50955;DHT22;36966;48.064;-0.792;2024-02-23T04:03:38;16.20;52.80
50955;DHT22;36966;48.064;-0.792;2024-02-23T04:05:57;16.20;52.80
50955;DHT22;36966;48.064;-0.792;2024-02-23T04:08:17;16.20;52.90
50955;DHT22;36966;48.064;-0.792;2024-02-23T04:10:36;16.20;53.00
50955;DHT22;36966;48.064;-0.792;2024-02-23T04:12:55;16.20;53.10
50955;DHT22;36966;48.064;-0.792;2024-02-23T04:15:15;16.20;53.10
50955;DHT22;36966;48.064;-0.792;2024-02-23T04:17:34;16.20;53.00
50955;DHT22;36966;48.064;-0.792;2024-02-23T04:19:53;16.20;53.10
50955;DHT22;36966;48.064;-0.792;2024-02-23T04:22:12;16.20;53.00
50955;DHT22;36966;48.064;-0.792;2024-02-23T04:24:32;16.20;53.00
50955;DHT22;36966;48.064;-0.792;2024-02-23T04:26:51;16.20;53.10
50955;DHT22;36966;48.064;-0.792;2024-02-23T04:29:10;16.20;53.00
50955;DHT22;36966;48.064;-0.792;2024-02-23T04:31:30;16.10;53.00
50955;DHT22;36966;48.064;-0.792;2024-02-23T04:33:49;16.10;53.00
50955;DHT22;36966;48.064;-0.792;2024-02-23T04:36:08;16.20;52.80
50955;DHT22;36966;48.064;-0.792;2024-02-23T04:38:28;16.20;52.90
50955;DHT22;36966;48.064;-0.792;2024-02-23T04:40:47;16.20;53.00
50955;DHT22;36966;48.064;-0.792;2024-02-23T04:43:06;16.20;53.00
50955;DHT22;36966;48.064;-0.792;2024-02-23T04:45:26;16.10;53.00
50955;DHT22;36966;48.064;-0.792;2024-02-23T04:47:45;16.10;53.00
50955;DHT22;36966;48.064;-0.792;2024-02-23T04:50:06;16.20;53.00
50955;DHT22;36966;48.064;-0.792;2024-02-23T04:52:25;16.10;53.10
50955;DHT22;36966;48.064;-0.792;2024-02-23T04:54:45;16.10;53.00
50955;DHT22;36966;48.064;-0.792;2024-02-23T04:57:04;16.10;53.00
50955;DHT22;36966;48.064;-0.792;2024-02-23T04:59:23;16.10;53.10
50955;DHT22;36966;48.064;-0.792;2024-02-23T05:01:42;16.10;53.00
50955;DHT22;36966;48.064;-0.792;2024-02-23T05:04:02;16.10;53.00
50955;DHT22;36966;48.064;-0.792;2024-02-23T05:06:22;16.10;53.00
50955;DHT22;36966;48.064;-0.792;2024-02-23T05:08:41;16.10;52.90
50955;DHT22;36966;48.064;-0.792;2024-02-23T05:11:01;16.10;52.90
50955;DHT22;36966;48.064;-0.792;2024-02-23T05:13:20;16.10;52.80
50955;DHT22;36966;48.064;-0.792;2024-02-23T05:15:39;16.10;52.90
50955;DHT22;36966;48.064;-0.792;2024-02-23T05:17:59;16.10;52.90
50955;DHT22;36966;48.064;-0.792;2024-02-23T05:20:18;16.10;53.00
50955;DHT22;36966;48.064;-0.792;2024-02-23T05:22:38;16.10;53.00
50955;DHT22;36966;48.064;-0.792;2024-02-23T05:24:57;16.10;52.90
50955;DHT22;36966;48.064;-0.792;2024-02-23T05:27:17;16.10;53.00
50955;DHT22;36966;48.064;-0.792;2024-02-23T05:29:36;16.10;52.90
50955;DHT22;36966;48.064;-0.792;2024-02-23T05:31:55;16.10;53.00
50955;DHT22;36966;48.064;-0.792;2024-02-23T05:34:14;16.10;52.90
50955;DHT22;36966;48.064;-0.792;2024-02-23T05:36:33;16.00;52.90
50955;DHT22;36966;48.064;-0.792;2024-02-23T05:38:52;16.10;52.80
50955;DHT22;36966;48.064;-0.792;2024-02-23T05:41:12;16.10;52.80
50955;DHT22;36966;48.064;-0.792;2024-02-23T05:43:32;16.10;52.80
50955;DHT22;36966;48.064;-0.792;2024-02-23T05:45:52;16.10;52.80
50955;DHT22;36966;48.064;-0.792;2024-02-23T05:48:11;16.10;52.70
50955;DHT22;36966;48.064;-0.792;2024-02-23T05:50:30;16.00;52.90
50955;DHT22;36966;48.064;-0.792;2024-02-23T05:52:51;16.00;52.80
50955;DHT22;36966;48.064;-0.792;2024-02-23T05:55:12;16.00;52.80
50955;DHT22;36966;48.064;-0.792;2024-02-23T05:57:31;16.00;52.70
50955;DHT22;36966;48.064;-0.792;2024-02-23T05:59:51;16.10;52.70
50955;DHT22;36966;48.064;-0.792;2024-02-23T06:02:10;16.00;52.80
50955;DHT22;36966;48.064;-0.792;2024-02-23T06:04:29;16.00;52.80
50955;DHT22;36966;48.064;-0.792;2024-02-23T06:06:48;16.00;52.70
50955;DHT22;36966;48.064;-0.792;2024-02-23T06:09:08;16.00;52.80
50955;DHT22;36966;48.064;-0.792;2024-02-23T06:11:27;16.00;52.70
50955;DHT22;36966;48.064;-0.792;2024-02-23T06:13:47;16.00;52.80
50955;DHT22;36966;48.064;-0.792;2024-02-23T06:16:10;16.10;52.70
50955;DHT22;36966;48.064;-0.792;2024-02-23T06:18:30;16.00;52.70
50955;DHT22;36966;48.064;-0.792;2024-02-23T06:20:49;16.00;52.70
50955;DHT22;36966;48.064;-0.792;2024-02-23T06:23:08;16.00;52.70
50955;DHT22;36966;48.064;-0.792;2024-02-23T06:25:27;16.00;52.70
50955;DHT22;36966;48.064;-0.792;2024-02-23T06:27:47;16.00;52.70
50955;DHT22;36966;48.064;-0.792;2024-02-23T06:30:06;16.00;52.70
50955;DHT22;36966;48.064;-0.792;2024-02-23T06:32:26;16.00;52.70
50955;DHT22;36966;48.064;-0.792;2024-02-23T06:34:45;16.00;52.70
50955;DHT22;36966;48.064;-0.792;2024-02-23T06:37:05;16.00;52.80
50955;DHT22;36966;48.064;-0.792;2024-02-23T06:39:24;16.00;52.80
50955;DHT22;36966;48.064;-0.792;2024-02-23T06:41:43;16.00;52.80
50955;DHT22;36966;48.064;-0.792;2024-02-23T06:44:02;16.00;52.70
50955;DHT22;36966;48.064;-0.792;2024-02-23T06:46:22;16.00;52.60
50955;DHT22;36966;48.064;-0.792;2024-02-23T06:48:41;16.00;52.60
50955;DHT22;36966;48.064;-0.792;2024-02-23T06:51:00;16.00;52.60
50955;DHT22;36966;48.064;-0.792;2024-02-23T06:53:20;16.00;52.60
50955;DHT22;36966;48.064;-0.792;2024-02-23T06:55:39;16.00;52.70
50955;DHT22;36966;48.064;-0.792;2024-02-23T06:57:58;16.00;52.60
50955;DHT22;36966;48.064;-0.792;2024-02-23T07:00:18;16.00;52.60
50955;DHT22;36966;48.064;-0.792;2024-02-23T07:02:37;16.00;52.60
50955;DHT22;36966;48.064;-0.792;2024-02-23T07:04:57;16.00;52.70
50955;DHT22;36966;48.064;-0.792;2024-02-23T07:07:17;15.90;52.80
50955;DHT22;36966;48.064;-0.792;2024-02-23T07:09:37;15.90;52.70
50955;DHT22;36966;48.064;-0.792;2024-02-23T07:11:56;15.90;52.70
50955;DHT22;36966;48.064;-0.792;2024-02-23T07:14:15;16.00;52.70
50955;DHT22;36966;48.064;-0.792;2024-02-23T07:16:38;16.00;52.20
50955;DHT22;36966;48.064;-0.792;2024-02-23T07:19:01;16.00;51.80
50955;DHT22;36966;48.064;-0.792;2024-02-23T07:21:20;16.00;51.70
50955;DHT22;36966;48.064;-0.792;2024-02-23T07:23:39;16.00;51.70
50955;DHT22;36966;48.064;-0.792;2024-02-23T07:25:58;16.00;51.60
50955;DHT22;36966;48.064;-0.792;2024-02-23T07:28:17;16.00;51.60
50955;DHT22;36966;48.064;-0.792;2024-02-23T07:30:42;16.00;51.60
50955;DHT22;36966;48.064;-0.792;2024-02-23T07:33:01;16.00;51.60
50955;DHT22;36966;48.064;-0.792;2024-02-23T07:35:20;16.00;51.50
50955;DHT22;36966;48.064;-0.792;2024-02-23T07:37:39;16.00;51.40
50955;DHT22;36966;48.064;-0.792;2024-02-23T07:39:59;16.00;51.50
50955;DHT22;36966;48.064;-0.792;2024-02-23T07:42:18;16.00;51.50
50955;DHT22;36966;48.064;-0.792;2024-02-23T07:44:37;16.00;51.40
50955;DHT22;36966;48.064;-0.792;2024-02-23T07:46:57;16.00;51.40
50955;DHT22;36966;48.064;-0.792;2024-02-23T07:49:18;16.00;51.30
50955;DHT22;36966;48.064;-0.792;2024-02-23T07:51:38;16.00;51.20
50955;DHT22;36966;48.064;-0.792;2024-02-23T07:53:57;16.00;51.20
50955;DHT22;36966;48.064;-0.792;2024-02-23T07:56:17;16.00;51.30
50955;DHT22;36966;48.064;-0.792;2024-02-23T07:58:36;16.10;51.30
50955;DHT22;36966;48.064;-0.792;2024-02-23T08:00:55;16.00;51.20
50955;DHT22;36966;48.064;-0.792;2024-02-23T08:03:15;16.10;51.20
50955;DHT22;36966;48.064;-0.792;2024-02-23T08:05:34;16.10;51.20
50955;DHT22;36966;48.064;-0.792;2024-02-23T08:07:54;16.10;51.10
50955;DHT22;36966;48.064;-0.792;2024-02-23T08:10:13;16.10;51.10
50955;DHT22;36966;48.064;-0.792;2024-02-23T08:12:32;16.10;51.10
50955;DHT22;36966;48.064;-0.792;2024-02-23T08:14:51;16.10;51.20
50955;DHT22;36966;48.064;-0.792;2024-02-23T08:17:12;16.10;51.10
50955;DHT22;36966;48.064;-0.792;2024-02-23T08:19:31;16.10;51.30
50955;DHT22;36966;48.064;-0.792;2024-02-23T08:21:50;16.10;51.30
50955;DHT22;36966;48.064;-0.792;2024-02-23T08:24:10;16.10;51.30
50955;DHT22;36966;48.064;-0.792;2024-02-23T08:26:29;16.10;51.20
50955;DHT22;36966;48.064;-0.792;2024-02-23T08:28:48;16.10;51.20
50955;DHT22;36966;48.064;-0.792;2024-02-23T08:31:08;16.10;51.20
50955;DHT22;36966;48.064;-0.792;2024-02-23T08:33:27;16.10;51.20
50955;DHT22;36966;48.064;-0.792;2024-02-23T08:35:46;16.20;51.20
50955;DHT22;36966;48.064;-0.792;2024-02-23T08:38:07;16.10;51.10
50955;DHT22;36966;48.064;-0.792;2024-02-23T08:40:26;16.20;51.10
50955;DHT22;36966;48.064;-0.792;2024-02-23T08:42:45;16.20;51.10
50955;DHT22;36966;48.064;-0.792;2024-02-23T08:45:06;16.20;51.00
50955;DHT22;36966;48.064;-0.792;2024-02-23T08:47:25;16.20;51.00
50955;DHT22;36966;48.064;-0.792;2024-02-23T08:49:50;16.10;51.00
50955;DHT22;36966;48.064;-0.792;2024-02-23T08:52:10;16.20;51.10
50955;DHT22;36966;48.064;-0.792;2024-02-23T08:54:29;16.10;51.10
50955;DHT22;36966;48.064;-0.792;2024-02-23T08:56:48;16.20;51.00
50955;DHT22;36966;48.064;-0.792;2024-02-23T08:59:08;16.20;51.00
50955;DHT22;36966;48.064;-0.792;2024-02-23T09:01:28;16.20;51.10
50955;DHT22;36966;48.064;-0.792;2024-02-23T09:03:47;16.20;51.00
50955;DHT22;36966;48.064;-0.792;2024-02-23T09:06:06;16.20;51.00
50955;DHT22;36966;48.064;-0.792;2024-02-23T09:08:26;16.20;51.00
50955;DHT22;36966;48.064;-0.792;2024-02-23T09:10:45;16.20;51.00
50955;DHT22;36966;48.064;-0.792;2024-02-23T09:13:04;16.20;51.00
50955;DHT22;36966;48.064;-0.792;2024-02-23T09:15:23;16.20;51.00
50955;DHT22;36966;48.064;-0.792;2024-02-23T09:17:43;16.20;51.00
50955;DHT22;36966;48.064;-0.792;2024-02-23T09:20:02;16.30;51.00
50955;DHT22;36966;48.064;-0.792;2024-02-23T09:22:21;16.30;51.00
50955;DHT22;36966;48.064;-0.792;2024-02-23T09:24:41;16.30;50.90
50955;DHT22;36966;48.064;-0.792;2024-02-23T09:27:01;16.40;50.90
50955;DHT22;36966;48.064;-0.792;2024-02-23T09:29:20;16.40;50.80
50955;DHT22;36966;48.064;-0.792;2024-02-23T09:31:40;16.50;50.90
50955;DHT22;36966;48.064;-0.792;2024-02-23T09:33:59;16.50;50.80
50955;DHT22;36966;48.064;-0.792;2024-02-23T09:36:19;16.50;50.90
50955;DHT22;36966;48.064;-0.792;2024-02-23T09:38:39;16.60;50.90
50955;DHT22;36966;48.064;-0.792;2024-02-23T09:40:58;16.60;50.90
50955;DHT22;36966;48.064;-0.792;2024-02-23T09:43:21;16.60;50.90
50955;DHT22;36966;48.064;-0.792;2024-02-23T09:45:40;16.60;50.80
50955;DHT22;36966;48.064;-0.792;2024-02-23T09:47:59;16.60;50.90
50955;DHT22;36966;48.064;-0.792;2024-02-23T09:50:20;16.60;50.90
50955;DHT22;36966;48.064;-0.792;2024-02-23T09:52:41;16.60;51.00
50955;DHT22;36966;48.064;-0.792;2024-02-23T09:55:00;16.60;50.90
50955;DHT22;36966;48.064;-0.792;2024-02-23T09:57:19;16.60;50.90
50955;DHT22;36966;48.064;-0.792;2024-02-23T09:59:39;16.60;50.90
50955;DHT22;36966;48.064;-0.792;2024-02-23T10:01:59;16.60;50.90
50955;DHT22;36966;48.064;-0.792;2024-02-23T10:04:18;16.70;50.90
50955;DHT22;36966;48.064;-0.792;2024-02-23T10:06:38;16.70;50.90
50955;DHT22;36966;48.064;-0.792;2024-02-23T10:08:57;16.70;50.90
50955;DHT22;36966;48.064;-0.792;2024-02-23T10:11:23;16.70;50.90
50955;DHT22;36966;48.064;-0.792;2024-02-23T10:13:42;16.70;50.90
50955;DHT22;36966;48.064;-0.792;2024-02-23T10:16:02;16.70;50.90
50955;DHT22;36966;48.064;-0.792;2024-02-23T10:18:21;16.70;51.00
50955;DHT22;36966;48.064;-0.792;2024-02-23T10:20:40;16.70;51.00
50955;DHT22;36966;48.064;-0.792;2024-02-23T10:22:59;16.70;51.00
50955;DHT22;36966;48.064;-0.792;2024-02-23T10:25:19;16.70;50.90
50955;DHT22;36966;48.064;-0.792;2024-02-23T10:27:40;16.60;51.00
50955;DHT22;36966;48.064;-0.792;2024-02-23T10:29:59;16.70;51.00
50955;DHT22;36966;48.064;-0.792;2024-02-23T10:32:19;16.70;50.90
50955;DHT22;36966;48.064;-0.792;2024-02-23T10:34:39;16.70;50.90
50955;DHT22;36966;48.064;-0.792;2024-02-23T10:37:01;16.70;50.80
50955;DHT22;36966;48.064;-0.792;2024-02-23T10:39:23;16.70;50.80
50955;DHT22;36966;48.064;-0.792;2024-02-23T10:41:45;16.70;50.80
50955;DHT22;36966;48.064;-0.792;2024-02-23T10:44:05;16.70;50.70
50955;DHT22;36966;48.064;-0.792;2024-02-23T10:46:25;16.70;50.60
50955;DHT22;36966;48.064;-0.792;2024-02-23T10:48:45;16.70;50.70
50955;DHT22;36966;48.064;-0.792;2024-02-23T10:51:05;16.70;50.60
50955;DHT22;36966;48.064;-0.792;2024-02-23T10:53:25;16.70;50.70
50955;DHT22;36966;48.064;-0.792;2024-02-23T10:55:45;16.70;50.70
50955;DHT22;36966;48.064;-0.792;2024-02-23T10:58:08;16.70;50.50
50955;DHT22;36966;48.064;-0.792;2024-02-23T11:00:30;16.70;50.60
50955;DHT22;36966;48.064;-0.792;2024-02-23T11:02:51;16.70;50.70
50955;DHT22;36966;48.064;-0.792;2024-02-23T11:05:12;16.70;50.80
50955;DHT22;36966;48.064;-0.792;2024-02-23T11:07:32;16.60;50.70
50955;DHT22;36966;48.064;-0.792;2024-02-23T11:09:51;16.70;50.80
50955;DHT22;36966;48.064;-0.792;2024-02-23T11:12:11;16.60;50.90
50955;DHT22;36966;48.064;-0.792;2024-02-23T11:14:41;16.60;50.90
50955;DHT22;36966;48.064;-0.792;2024-02-23T11:17:03;16.60;51.00
50955;DHT22;36966;48.064;-0.792;2024-02-23T11:19:31;16.60;50.90
50955;DHT22;36966;48.064;-0.792;2024-02-23T11:21:52;16.60;51.00
50955;DHT22;36966;48.064;-0.792;2024-02-23T11:24:15;16.50;51.10
50955;DHT22;36966;48.064;-0.792;2024-02-23T11:26:36;16.50;50.90
50955;DHT22;36966;48.064;-0.792;2024-02-23T11:28:55;16.50;51.10
50955;DHT22;36966;48.064;-0.792;2024-02-23T11:31:15;16.50;51.00
50955;DHT22;36966;48.064;-0.792;2024-02-23T11:33:34;16.50;51.10
50955;DHT22;36966;48.064;-0.792;2024-02-23T11:36:04;16.50;50.90
50955;DHT22;36966;48.064;-0.792;2024-02-23T11:38:23;16.50;51.00
50955;DHT22;36966;48.064;-0.792;2024-02-23T11:40:43;16.50;50.80
50955;DHT22;36966;48.064;-0.792;2024-02-23T11:43:03;16.50;50.90
50955;DHT22;36966;48.064;-0.792;2024-02-23T11:45:23;16.50;50.80
50955;DHT22;36966;48.064;-0.792;2024-02-23T11:47:43;16.60;50.70
50955;DHT22;36966;48.064;-0.792;2024-02-23T11:50:02;16.60;50.60
50955;DHT22;36966;48.064;-0.792;2024-02-23T11:52:21;16.60;50.50
50955;DHT22;36966;48.064;-0.792;2024-02-23T11:54:40;16.60;50.50
50955;DHT22;36966;48.064;-0.792;2024-02-23T11:57:00;16.60;50.40
50955;DHT22;36966;48.064;-0.792;2024-02-23T11:59:20;16.60;50.30
50955;DHT22;36966;48.064;-0.792;2024-02-23T12:01:39;16.70;50.30
50955;DHT22;36966;48.064;-0.792;2024-02-23T12:03:58;16.70;50.20
50955;DHT22;36966;48.064;-0.792;2024-02-23T12:06:18;16.70;50.20
50955;DHT22;36966;48.064;-0.792;2024-02-23T12:08:37;16.70;50.00
50955;DHT22;36966;48.064;-0.792;2024-02-23T12:10:56;16.70;50.10
50955;DHT22;36966;48.064;-0.792;2024-02-23T12:13:19;16.70;50.10
50955;DHT22;36966;48.064;-0.792;2024-02-23T12:15:38;16.70;49.90
50955;DHT22;36966;48.064;-0.792;2024-02-23T12:17:58;16.70;49.80
50955;DHT22;36966;48.064;-0.792;2024-02-23T12:20:18;16.80;49.90
50955;DHT22;36966;48.064;-0.792;2024-02-23T12:22:40;16.90;49.80
50955;DHT22;36966;48.064;-0.792;2024-02-23T12:24:59;16.90;49.60
50955;DHT22;36966;48.064;-0.792;2024-02-23T12:27:18;17.00;49.60
50955;DHT22;36966;48.064;-0.792;2024-02-23T12:29:37;17.00;49.70
50955;DHT22;36966;48.064;-0.792;2024-02-23T12:32:04;17.00;49.70
50955;DHT22;36966;48.064;-0.792;2024-02-23T12:34:24;17.10;49.20
50955;DHT22;36966;48.064;-0.792;2024-02-23T12:36:45;17.10;49.20
50955;DHT22;36966;48.064;-0.792;2024-02-23T12:39:04;17.10;49.20
50955;DHT22;36966;48.064;-0.792;2024-02-23T12:41:24;17.10;48.70
50955;DHT22;36966;48.064;-0.792;2024-02-23T12:43:43;17.10;48.90
50955;DHT22;36966;48.064;-0.792;2024-02-23T12:46:02;17.20;48.80
50955;DHT22;36966;48.064;-0.792;2024-02-23T12:48:22;17.20;48.90
50955;DHT22;36966;48.064;-0.792;2024-02-23T12:50:41;17.20;48.70
50955;DHT22;36966;48.064;-0.792;2024-02-23T12:53:02;17.20;48.40
50955;DHT22;36966;48.064;-0.792;2024-02-23T12:55:21;17.20;48.70
50955;DHT22;36966;48.064;-0.792;2024-02-23T12:57:40;17.20;47.10
50955;DHT22;36966;48.064;-0.792;2024-02-23T13:00:00;17.10;49.20
50955;DHT22;36966;48.064;-0.792;2024-02-23T13:02:19;17.20;49.10
50955;DHT22;36966;48.064;-0.792;2024-02-23T13:04:38;17.10;49.20
50955;DHT22;36966;48.064;-0.792;2024-02-23T13:06:58;17.10;49.30
50955;DHT22;36966;48.064;-0.792;2024-02-23T13:09:17;17.00;49.30
50955;DHT22;36966;48.064;-0.792;2024-02-23T13:11:37;17.10;49.40
50955;DHT22;36966;48.064;-0.792;2024-02-23T13:13:57;17.00;49.40
50955;DHT22;36966;48.064;-0.792;2024-02-23T13:16:16;17.00;49.50
50955;DHT22;36966;48.064;-0.792;2024-02-23T13:18:35;17.00;49.50
50955;DHT22;36966;48.064;-0.792;2024-02-23T13:20:54;17.00;49.60
50955;DHT22;36966;48.064;-0.792;2024-02-23T13:23:14;16.90;49.50
50955;DHT22;36966;48.064;-0.792;2024-02-23T13:25:38;16.90;49.70
50955;DHT22;36966;48.064;-0.792;2024-02-23T13:27:57;16.90;49.70
50955;DHT22;36966;48.064;-0.792;2024-02-23T13:30:16;16.90;49.80
50955;DHT22;36966;48.064;-0.792;2024-02-23T13:32:35;16.90;49.90
50955;DHT22;36966;48.064;-0.792;2024-02-23T13:34:54;16.90;49.90
50955;DHT22;36966;48.064;-0.792;2024-02-23T13:37:14;16.90;49.80
50955;DHT22;36966;48.064;-0.792;2024-02-23T13:39:33;16.90;49.80
50955;DHT22;36966;48.064;-0.792;2024-02-23T13:41:54;16.90;49.80
50955;DHT22;36966;48.064;-0.792;2024-02-23T13:44:13;16.80;49.90
50955;DHT22;36966;48.064;-0.792;2024-02-23T13:46:35;16.80;49.90
50955;DHT22;36966;48.064;-0.792;2024-02-23T13:49:16;16.80;50.00
50955;DHT22;36966;48.064;-0.792;2024-02-23T13:51:35;16.80;49.90
50955;DHT22;36966;48.064;-0.792;2024-02-23T13:53:54;16.80;50.00
50955;DHT22;36966;48.064;-0.792;2024-02-23T13:56:13;16.80;50.10
50955;DHT22;36966;48.064;-0.792;2024-02-23T13:58:32;16.80;50.00
50955;DHT22;36966;48.064;-0.792;2024-02-23T14:00:52;16.70;50.00
50955;DHT22;36966;48.064;-0.792;2024-02-23T14:03:15;16.70;50.20
50955;DHT22;36966;48.064;-0.792;2024-02-23T14:05:34;16.80;50.10
50955;DHT22;36966;48.064;-0.792;2024-02-23T14:07:54;16.70;50.10
50955;DHT22;36966;48.064;-0.792;2024-02-23T14:10:13;16.70;50.10
50955;DHT22;36966;48.064;-0.792;2024-02-23T14:12:33;16.70;50.20
50955;DHT22;36966;48.064;-0.792;2024-02-23T14:14:52;16.70;50.10
50955;DHT22;36966;48.064;-0.792;2024-02-23T14:17:11;16.70;50.10
50955;DHT22;36966;48.064;-0.792;2024-02-23T14:19:30;16.70;50.10
50955;DHT22;36966;48.064;-0.792;2024-02-23T14:21:49;16.70;50.00
50955;DHT22;36966;48.064;-0.792;2024-02-23T14:24:09;16.70;50.00
50955;DHT22;36966;48.064;-0.792;2024-02-23T14:26:29;16.70;49.90
50955;DHT22;36966;48.064;-0.792;2024-02-23T14:28:48;16.70;49.90